WEATHER DATA

TODAY
Time Temp. Dewp. Hum. Wind dir Wind speed Wind gust Bar. 1h Prec. 24h Prec.
00:00 10.3 9.1 92 0 0 1022.3 0.0000 0.0000
00:09 10.2 9.1 93 0 0 1022.1 0.0000 0.0000
00:20 10.1 9 93 0 0 1021.9 0.0000 0.0000
00:40 9.9 8.8 93 0 0 1021.4 0.0000 0.0000
00:50 9.9 8.8 93 0 0 1021.4 0.0000 0.0000
01:01 9.8 8.7 93 0 0 1021.2 0.0000 0.0000
01:11 9.7 8.6 93 0 0 1021.1 0.0000 0.0000
01:30 9.6 8.5 93 0 0 1020.9 0.0000 0.0000
01:41 9.6 8.5 93 0 0 1020.9 0.0000 0.0000
02:01 9.6 8.5 93 0 0 1020.6 0.0000 0.0000
02:11 9.7 8.6 93 0 0 1020.6 0.0000 0.0000
02:21 9.7 8.6 93 0 0 1020.6 0.0000 0.0000
02:31 9.7 8.6 93 0 0 1020.5 0.0000 0.0000
02:41 9.7 8.6 93 0 0 1020.3 0.0000 0.0000
02:52 9.6 8.5 93 0 0 1020.3 0.0000 0.0000
03:02 9.6 8.5 93 0 0 1020.3 0.0000 0.0000
03:12 9.6 8.5 93 0 0 1020.2 0.0000 0.0000
03:22 9.5 8.4 93 0 0 1020.1 0.0000 0.0000
03:42 9.4 8.3 93 0 0 1019.8 0.0000 0.0000
04:13 9.1 8 93 0 0 1019.5 0.0000 0.0000
04:53 8.8 7.7 93 0 0 1019.1 0.0000 0.0000
05:03 8.6 7.7 94 0 0 1019.1 0.0000 0.0000
05:13 8.6 7.5 93 0 0 1019.2 0.0000 0.0000
05:24 8.5 7.6 94 0 0 1018.8 0.0000 0.0000
05:34 8.5 7.6 94 0 0 1018.8 0.0000 0.0000
05:44 8.4 7.5 94 0 0 1018.6 0.0000 0.0000
05:54 8.3 7.4 94 0 0 1018.5 0.0000 0.0000
06:04 8.1 7.2 94 0 0 1018.5 0.0000 0.0000
06:14 8 7.1 94 0 0 1018.5 0.0000 0.0000
06:24 8 7.1 94 0 0 1018.2 0.0000 0.0000
06:35 8 7.1 94 0 0 1018.3 0.0000 0.0000
06:45 8 7.1 94 0 0 1018.3 0.0000 0.0000
06:54 8.1 7.2 94 0 0 1018.3 0.0000 0.0000
07:05 8.2 7.3 94 0 0 1018.1 0.0000 0.0000
07:15 8.5 7.6 94 0 0 1018 0.0000 0.0000
07:40 9 8.1 94 0 0 1017.8 0.0000 0.0000
07:56 9.2 8.3 94 0 0 1018 0.0000 0.0000
08:05 9.3 8.4 94 0 0 1018.2 0.0000 0.0000
08:15 9.4 8.5 94 0 0 1018.4 0.0000 0.0000
08:26 9.5 8.6 94 0 0 1018 0.0000 0.0000
08:36 9.6 8.7 94 0 0 1018.2 0.0000 0.0000
09:01 9.8 8.9 94 0 0 1018.3 0.0000 0.0000
09:11 9.9 9 94 0 0 1018.1 0.0000 0.0000
09:32 10.1 9.2 94 0 0 1017.8 0.0000 0.0000
09:43 10.2 9.3 94 0 0 1017.7 0.0000 0.0000
10:03 10.5 9.6 94 0 0 1017.5 0.0000 0.0000
10:13 10.7 9.8 94 0 0 1017.4 0.0000 0.0000
10:33 11.1 10.2 94 0 0 1017.3 0.0000 0.0000
10:43 11.4 10.5 94 0 0 1017.2 0.0000 0.0000
10:54 11.7 10.8 94 0 0 1017.2 0.0000 0.0000
11:09 12 11.1 94 0 0 1017.3 0.0000 0.0000
11:19 12.2 11.3 94 0 0 1017.3 0.0000 0.0000
11:29 12.3 11.4 94 0 0 1017 0.0000 0.0000
11:39 12.5 11.4 93 0 0 1017 0.0000 0.0000
11:49 12.7 11.6 93 0 0 1016.8 0.0000 0.0000
11:59 12.8 11.7 93 0 0 1016.9 0.0000 0.0000
12:15 13 11.9 93 0 0 1016.8 0.0000 0.0000
12:24 13.1 12 93 0 0 1016.9 0.0000 0.0000
12:34 13.2 12.1 93 0 0 1016.5 0.0000 0.0000
12:45 13.4 12.3 93 0 0 1016.3 0.0000 0.0000
12:55 13.5 12.4 93 0 0 1016.2 0.0000 0.0000
13:05 13.6 12.5 93 0 0 1016.1 0.0000 0.0000
13:15 13.7 12.6 93 0 0 1016.1 0.0000 0.0000
13:25 13.8 12.5 92 0 0 1016.1 0.0000 0.0000
13:35 13.9 12.6 92 0 0 1015.9 0.0000 0.0000
13:45 14 12.7 92 0 0 1016 0.0000 0.0000
14:06 14.2 12.8 91 0 0 1015.6 0.0000 0.0000
14:16 14.3 12.9 91 0 0 1015.3 0.0000 0.0000
17:13 15.1 13.3 89 0 0 1013.5 0.0000 0.0000
17:23 15.1 13.3 89 0 0 1013.3 0.0000 0.0000
17:33 15.1 13.3 89 0 0 1013.1 0.0000 0.0000
17:43 15 13.2 89 0 0 1013.2 0.0000 0.0000
17:53 15 13.2 89 0 0 1013.1 0.0000 0.0000
18:03 15 13.2 89 0 0 1013.1 0.0000 0.0000
18:14 14.9 13.1 89 0 0 1013 0.0000 0.0000
18:24 14.8 13 89 0 0 1013 0.0000 0.0000
18:34 14.7 13.1 90 0 0 1013 0.0000 0.0000
18:43 14.5 12.9 90 0 0 1012.8 0.0000 0.0000
19:01 14.1 12.7 91 0 0 1013 0.0000 0.0000
19:20 13.8 12.4 91 0 0 1012.9 0.0000 0.0000
19:30 13.6 12.2 91 0 0 1012.8 0.0000 0.0000

DAY STATISTIC

2019-10-23
TEMPERATURE
AVERAGE
11.1
HIGH
15.1
17:13
LOW
8.0
06:14
PRESSURE
AVERAGE
1017.6
HIGH
1022.3
00:00
LOW
1012.8
18:43
DEWPOINT
AVERAGE
10.0
HIGH
13.3
17:13
LOW
7.1
06:14
HUMIDITY
AVERAGE
93
HIGH
94
05:03
LOW
89
17:13
WIND SPEED
AVERAGE
0.0
HIGH
0.0
17:41
WIND GUST
AVERAGE
0.0
HIGH
0.0
17:41
WIND DIRECTION
PREVAILING
%
PRECIPITATION
RAIN HOUR
0.0
RAIN DAY
0.0
TEMPERATURE (°C)
LOW
8.0
HIGH
15.1
AVERAGE
11.1
PRESSURE (hpa)
LOW
1012.8
HIGH
1022.3
AVERAGE
1017.6
DEVICE